Time;durP1;ratioP1;P1;durP2;ratioP2;P2;SDS_P1;SDS_P2;PMS_P1;PMS_P2;Temp;Humidity;BMP_temperature;BMP_pressure;BME280_temperature;BME280_humidity;BME280_pressure;Samples;Min_cycle;Max_cycle;Signal;HPM_P1;HPM_P2
2021/04/24 00:02:23;;;;;;;1.85;0.17;;;15.80;35.60;;;;;;5009710;28;20037;-78
2021/04/24 00:04:49;;;;;;;0.10;0.08;;;15.70;35.70;;;;;;5009081;28;20034;-78
2021/04/24 00:07:16;;;;;;;0.05;0.00;;;15.70;35.80;;;;;;5010623;28;20394;-79
2021/04/24 00:09:42;;;;;;;1.65;0.10;;;15.70;35.80;;;;;;4991207;28;20466;-78
2021/04/24 00:12:09;;;;;;;0.65;0.10;;;15.70;35.80;;;;;;5009401;28;20045;-79
2021/04/24 00:14:35;;;;;;;0.47;0.20;;;15.60;35.80;;;;;;5010717;28;20049;-79
2021/04/24 00:17:02;;;;;;;1.02;0.25;;;15.60;35.90;;;;;;5023760;28;20049;-79
2021/04/24 00:19:28;;;;;;;0.22;0.10;;;15.60;35.90;;;;;;5010552;28;20034;-78
2021/04/24 00:21:54;;;;;;;2.85;0.47;;;15.60;35.90;;;;;;5009645;28;20042;-77
2021/04/24 00:24:20;;;;;;;0.55;0.15;;;15.60;36.00;;;;;;5031281;28;20030;-79
2021/04/24 00:26:47;;;;;;;1.02;0.30;;;15.60;36.00;;;;;;4993746;28;20041;-78
2021/04/24 00:29:13;;;;;;;2.15;0.08;;;15.60;36.10;;;;;;5010409;28;20034;-78
2021/04/24 00:31:39;;;;;;;7.03;0.52;;;15.50;36.10;;;;;;5008671;28;20046;-78
2021/04/24 00:34:05;;;;;;;0.10;0.00;;;15.50;36.10;;;;;;5009166;28;20052;-78
2021/04/24 00:36:32;;;;;;;0.25;0.03;;;15.40;36.20;;;;;;5009059;28;20042;-78
2021/04/24 00:38:58;;;;;;;0.82;0.68;;;15.40;36.30;;;;;;4991141;28;20034;-79
2021/04/24 00:41:24;;;;;;;0.43;0.10;;;15.40;36.30;;;;;;5010821;28;20033;-78
2021/04/24 00:43:50;;;;;;;0.35;0.10;;;15.40;36.40;;;;;;5009178;28;20030;-79
2021/04/24 00:46:17;;;;;;;0.73;0.40;;;15.30;36.40;;;;;;5009510;28;20042;-78
2021/04/24 00:48:43;;;;;;;0.85;0.20;;;15.30;36.50;;;;;;5010192;28;20033;-78
2021/04/24 00:51:10;;;;;;;0.13;0.00;;;15.20;36.50;;;;;;5010510;28;20042;-79
2021/04/24 00:53:36;;;;;;;0.50;0.05;;;15.20;36.60;;;;;;4992169;28;20046;-78
2021/04/24 00:56:03;;;;;;;1.38;0.20;;;15.10;36.80;;;;;;5011415;28;20034;-78
2021/04/24 00:58:29;;;;;;;0.20;0.00;;;15.10;37.00;;;;;;5010122;28;20030;-78
2021/04/24 01:00:55;;;;;;;0.30;0.10;;;15.00;37.10;;;;;;5008081;28;20033;-78
2021/04/24 01:03:22;;;;;;;0.30;0.10;;;14.90;37.20;;;;;;5008867;28;20041;-78
2021/04/24 01:05:48;;;;;;;2.35;0.22;;;14.90;37.20;;;;;;5008778;28;20057;-78
2021/04/24 01:08:14;;;;;;;1.20;0.13;;;14.90;37.40;;;;;;5010128;28;20056;-79
2021/04/24 01:10:43;;;;;;;1.55;0.68;;;14.80;37.40;;;;;;5015229;28;20060;-79
2021/04/24 01:13:09;;;;;;;2.08;0.20;;;14.80;37.50;;;;;;5009153;28;20038;-79
2021/04/24 01:15:35;;;;;;;0.17;0.08;;;14.70;37.50;;;;;;5008894;28;20041;-79
2021/04/24 01:18:04;;;;;;;0.77;0.40;;;14.70;37.60;;;;;;4992688;28;20049;-78
2021/04/24 01:20:30;;;;;;;0.45;0.10;;;14.70;37.70;;;;;;5011002;28;20482;-78
2021/04/24 01:22:56;;;;;;;0.25;0.15;;;14.70;37.70;;;;;;5011657;28;20391;-78
2021/04/24 01:25:24;;;;;;;1.15;0.13;;;14.60;37.70;;;;;;5007614;28;20030;-79
2021/04/24 01:27:57;;;;;;;10.40;0.52;;;14.60;37.80;;;;;;5009032;28;20382;-79
2021/04/24 01:30:32;;;;;;;0.45;0.22;;;14.60;37.80;;;;;;5007724;28;20041;-78
2021/04/24 01:32:58;;;;;;;0.00;0.00;;;14.50;37.80;;;;;;5007453;28;20483;-79
2021/04/24 01:35:26;;;;;;;0.28;0.20;;;14.60;37.90;;;;;;5008840;28;20030;-79
2021/04/24 01:37:52;;;;;;;0.35;0.10;;;14.50;37.90;;;;;;5011695;28;20353;-79
2021/04/24 01:40:18;;;;;;;1.65;0.57;;;14.50;37.80;;;;;;5005660;28;20030;-78
2021/04/24 01:42:44;;;;;;;0.88;0.20;;;14.50;37.90;;;;;;5008521;28;20030;-79
2021/04/24 01:45:12;;;;;;;1.52;0.30;;;14.50;37.90;;;;;;5005913;28;20427;-79
2021/04/24 01:47:39;;;;;;;0.43;0.30;;;14.50;38.00;;;;;;5009752;28;20479;-78
2021/04/24 01:50:06;;;;;;;0.35;0.10;;;14.50;38.00;;;;;;5022193;28;20026;-78
2021/04/24 01:52:34;;;;;;;4.40;0.08;;;14.40;38.10;;;;;;5007116;28;20490;-79
2021/04/24 01:55:01;;;;;;;1.00;0.60;;;14.40;38.20;;;;;;5008275;28;20113;-79
2021/04/24 01:57:27;;;;;;;0.05;0.00;;;14.30;38.40;;;;;;5009560;28;20047;-79
2021/04/24 01:59:53;;;;;;;0.45;0.15;;;14.30;38.40;;;;;;5005775;28;20053;-79
2021/04/24 02:02:19;;;;;;;1.27;0.38;;;14.20;38.60;;;;;;5007353;28;20041;-78
2021/04/24 02:04:45;;;;;;;0.25;0.10;;;14.20;38.70;;;;;;5003418;28;20497;-78
2021/04/24 02:07:11;;;;;;;0.30;0.10;;;14.10;38.60;;;;;;5001822;28;20034;-78
2021/04/24 02:09:37;;;;;;;0.65;0.20;;;14.10;38.70;;;;;;5009456;28;20502;-78
2021/04/24 02:12:10;;;;;;;0.38;0.20;;;14.10;38.80;;;;;;5012035;28;20430;-78
2021/04/24 02:14:44;;;;;;;0.90;0.40;;;14.10;38.90;;;;;;5012446;28;20025;-78
2021/04/24 02:17:14;;;;;;;0.90;0.30;;;14.00;39.00;;;;;;5036440;28;20038;-78
2021/04/24 02:19:41;;;;;;;0.55;0.00;;;13.90;39.00;;;;;;5009411;28;20498;-78
2021/04/24 02:22:08;;;;;;;2.40;0.10;;;13.90;39.00;;;;;;5011406;28;20030;-78
2021/04/24 02:24:47;;;;;;;1.00;0.10;;;13.90;39.00;;;;;;5009314;28;20030;-78
2021/04/24 02:27:13;;;;;;;1.15;0.10;;;13.90;39.00;;;;;;5037672;28;20042;-78
2021/04/24 02:29:40;;;;;;;0.38;0.10;;;13.90;39.40;;;;;;4978690;28;20050;-78
2021/04/24 02:32:07;;;;;;;1.00;0.57;;;13.80;39.20;;;;;;5030709;28;20121;-79
2021/04/24 02:34:33;;;;;;;6.63;0.25;;;13.80;39.20;;;;;;5009528;28;20479;-79
2021/04/24 02:37:00;;;;;;;0.00;0.00;;;13.80;39.30;;;;;;4994407;28;20046;-78
2021/04/24 02:39:30;;;;;;;2.80;0.50;;;13.80;39.20;;;;;;4993554;28;20029;-78
2021/04/24 02:41:57;;;;;;;5.40;0.55;;;13.80;39.20;;;;;;5011105;28;20030;-78
2021/04/24 02:44:23;;;;;;;1.40;0.63;;;13.80;39.20;;;;;;5012773;28;20467;-78
2021/04/24 02:46:50;;;;;;;0.63;0.25;;;13.80;39.20;;;;;;5024012;28;20041;-78
2021/04/24 02:49:16;;;;;;;2.55;0.93;;;13.80;39.30;;;;;;5010589;28;20506;-78
2021/04/24 02:51:42;;;;;;;1.77;0.17;;;13.70;39.20;;;;;;5010570;28;20041;-79
2021/04/24 02:54:08;;;;;;;0.63;0.17;;;13.70;39.30;;;;;;5011085;28;20034;-78
2021/04/24 02:56:35;;;;;;;0.35;0.10;;;13.70;39.30;;;;;;5010996;28;20033;-79
2021/04/24 02:59:01;;;;;;;0.10;0.00;;;13.70;39.30;;;;;;5015846;28;20096;-77
2021/04/24 03:01:27;;;;;;;0.22;0.03;;;13.70;39.40;;;;;;5002733;28;20052;-78
2021/04/24 03:03:53;;;;;;;0.50;0.00;;;13.70;40.10;;;;;;5025041;28;20026;-77
2021/04/24 03:06:19;;;;;;;0.10;0.00;;;13.60;39.40;;;;;;5000200;28;20498;-80
2021/04/24 03:08:45;;;;;;;0.70;0.30;;;13.60;39.40;;;;;;5008671;28;20041;-80
2021/04/24 03:11:11;;;;;;;0.70;0.10;;;13.60;39.40;;;;;;5011990;28;20479;-81
2021/04/24 03:13:37;;;;;;;0.65;0.10;;;13.60;39.50;;;;;;5011674;28;20042;-79
2021/04/24 03:16:04;;;;;;;2.83;0.17;;;13.50;39.60;;;;;;5007896;28;20529;-79
2021/04/24 03:18:30;;;;;;;0.45;0.10;;;13.40;39.60;;;;;;5008823;28;20030;-79
2021/04/24 03:20:56;;;;;;;0.05;0.00;;;13.40;39.70;;;;;;5010492;28;20025;-79
2021/04/24 03:23:22;;;;;;;1.20;0.38;;;13.40;39.80;;;;;;5011165;28;20405;-79
2021/04/24 03:25:48;;;;;;;0.93;0.32;;;13.30;39.80;;;;;;5012817;28;20022;-81
2021/04/24 03:28:14;;;;;;;1.10;0.15;;;13.30;39.90;;;;;;5011975;28;20035;-78
2021/04/24 03:30:40;;;;;;;0.35;0.10;;;13.40;39.80;;;;;;5009164;28;20395;-81
2021/04/24 03:33:06;;;;;;;1.60;0.40;;;13.40;39.80;;;;;;5011345;28;20038;-79
2021/04/24 03:35:32;;;;;;;3.15;0.30;;;13.50;39.80;;;;;;5010776;28;20498;-78
2021/04/24 03:37:58;;;;;;;0.65;0.20;;;13.50;39.70;;;;;;5013863;28;20041;-78
2021/04/24 03:40:25;;;;;;;0.13;0.10;;;13.40;39.70;;;;;;5011496;28;20391;-79
2021/04/24 03:42:51;;;;;;;0.90;0.20;;;13.40;39.70;;;;;;5010140;28;20407;-79
2021/04/24 03:45:18;;;;;;;0.52;0.15;;;13.40;39.70;;;;;;5011206;28;20054;-78
2021/04/24 03:47:48;;;;;;;0.15;0.05;;;13.40;39.80;;;;;;5008565;28;20386;-78
2021/04/24 03:50:15;;;;;;;1.42;0.47;;;13.30;39.80;;;;;;4992187;28;20043;-79
2021/04/24 03:52:41;;;;;;;0.15;0.00;;;13.30;39.90;;;;;;5039304;28;20057;-79
2021/04/24 03:55:08;;;;;;;0.95;0.25;;;13.20;39.90;;;;;;5009129;28;20021;-78
2021/04/24 03:57:34;;;;;;;0.30;0.20;;;13.10;40.00;;;;;;5011335;28;20049;-78
2021/04/24 04:00:00;;;;;;;0.10;0.10;;;13.10;40.10;;;;;;5010281;28;20033;-79
2021/04/24 04:02:26;;;;;;;0.00;0.00;;;13.10;40.20;;;;;;4993599;28;20050;-78
2021/04/24 04:04:53;;;;;;;2.42;0.20;;;13.00;40.10;;;;;;5024373;28;20041;-79
2021/04/24 04:07:19;;;;;;;0.25;0.00;;;13.00;40.20;;;;;;5009961;28;20388;-79
2021/04/24 04:09:45;;;;;;;0.00;0.00;;;13.00;40.20;;;;;;5011526;28;20038;-78
2021/04/24 04:12:11;;;;;;;0.47;0.00;;;13.00;40.20;;;;;;5010003;28;20064;-78
2021/04/24 04:14:37;;;;;;;0.20;0.10;;;12.90;40.10;;;;;;5010220;28;20478;-78
2021/04/24 04:17:03;;;;;;;0.90;0.35;;;12.90;40.20;;;;;;5012425;28;20045;-78
2021/04/24 04:19:29;;;;;;;0.35;0.08;;;12.90;40.30;;;;;;5009452;28;20042;-78
2021/04/24 04:21:56;;;;;;;0.80;0.20;;;12.80;40.30;;;;;;5010995;28;20490;-78
2021/04/24 04:24:22;;;;;;;0.30;0.15;;;12.90;40.40;;;;;;5009639;28;20518;-78
2021/04/24 04:26:48;;;;;;;9.32;0.28;;;12.80;40.40;;;;;;5008282;28;20052;-78
2021/04/24 04:29:14;;;;;;;0.30;0.20;;;12.80;40.50;;;;;;5010828;28;20037;-78
2021/04/24 04:31:40;;;;;;;21.58;0.50;;;12.80;40.60;;;;;;5038379;28;20033;-78
2021/04/24 04:34:06;;;;;;;0.30;0.20;;;12.70;40.60;;;;;;5009532;28;20041;-79
2021/04/24 04:36:32;;;;;;;0.85;0.25;;;12.70;40.60;;;;;;5009681;28;20037;-78
2021/04/24 04:38:58;;;;;;;0.38;0.15;;;12.70;40.60;;;;;;5009818;28;20037;-78
2021/04/24 04:41:24;;;;;;;0.25;0.10;;;12.70;40.70;;;;;;5010212;28;20052;-78
2021/04/24 04:43:50;;;;;;;0.10;0.00;;;12.60;40.70;;;;;;5011930;28;20026;-78
2021/04/24 04:46:16;;;;;;;0.50;0.20;;;12.60;40.80;;;;;;5008915;28;20423;-78
2021/04/24 04:48:42;;;;;;;0.30;0.00;;;12.60;40.80;;;;;;5010595;28;20036;-79
2021/04/24 04:51:09;;;;;;;0.20;0.00;;;12.60;40.70;;;;;;5009372;28;20033;-78
2021/04/24 04:53:35;;;;;;;0.30;0.20;;;12.60;40.80;;;;;;4993168;28;20057;-78
2021/04/24 04:56:01;;;;;;;0.82;0.30;;;12.50;40.80;;;;;;5012495;28;20037;-78
2021/04/24 04:58:27;;;;;;;0.00;0.00;;;12.50;41.00;;;;;;5010590;28;20387;-78
2021/04/24 05:00:53;;;;;;;1.63;0.55;;;12.50;41.00;;;;;;5009902;28;20026;-78
2021/04/24 05:03:19;;;;;;;0.20;0.00;;;12.50;41.10;;;;;;5010643;28;20406;-78
2021/04/24 05:05:45;;;;;;;2.15;0.10;;;12.40;41.20;;;;;;5009110;28;20022;-78
2021/04/24 05:08:11;;;;;;;0.57;0.17;;;12.40;41.20;;;;;;5011290;28;20026;-78
2021/04/24 05:10:37;;;;;;;0.30;0.10;;;12.30;41.30;;;;;;5021442;28;20053;-78
2021/04/24 05:13:03;;;;;;;1.00;0.20;;;12.30;41.30;;;;;;5033566;28;20039;-78
2021/04/24 05:15:29;;;;;;;1.27;0.38;;;12.30;41.40;;;;;;4999311;28;20034;-78
2021/04/24 05:17:56;;;;;;;0.28;0.10;;;12.30;41.50;;;;;;5008988;28;20495;-79
2021/04/24 05:20:22;;;;;;;6.25;0.57;;;12.30;41.40;;;;;;5011014;28;20038;-78
2021/04/24 05:22:48;;;;;;;2.08;0.57;;;12.30;41.50;;;;;;5039020;28;20494;-79
2021/04/24 05:25:17;;;;;;;2.20;0.32;;;12.30;41.50;;;;;;5009235;28;20398;-79
2021/04/24 05:27:45;;;;;;;3.17;0.43;;;12.30;41.50;;;;;;5008907;28;20018;-79
2021/04/24 05:30:12;;;;;;;2.65;0.22;;;12.30;41.50;;;;;;5008604;28;20060;-79
2021/04/24 05:32:39;;;;;;;0.32;0.13;;;12.30;41.50;;;;;;4976506;28;20065;-78
2021/04/24 05:35:05;;;;;;;0.68;0.25;;;12.30;41.60;;;;;;4995600;28;20069;-77
2021/04/24 05:37:31;;;;;;;0.22;0.10;;;12.30;41.50;;;;;;5006772;28;20034;-78
2021/04/24 05:39:58;;;;;;;2.05;0.10;;;12.40;41.50;;;;;;5008927;28;20034;-79
2021/04/24 05:42:24;;;;;;;0.68;0.25;;;12.50;41.40;;;;;;4993184;28;20044;-79
2021/04/24 05:44:50;;;;;;;0.15;0.00;;;12.60;41.20;;;;;;5010347;28;20436;-79
2021/04/24 05:47:16;;;;;;;0.10;0.00;;;12.90;41.00;;;;;;4997374;28;20037;-78
2021/04/24 05:49:42;;;;;;;0.85;0.35;;;13.10;40.70;;;;;;5014337;28;20497;-78
2021/04/24 05:52:08;;;;;;;0.10;0.00;;;13.30;40.50;;;;;;5011437;28;20038;-78
2021/04/24 05:54:34;;;;;;;1.67;0.50;;;13.40;40.40;;;;;;5012743;28;20046;-78
2021/04/24 05:57:00;;;;;;;2.97;0.43;;;13.60;40.50;;;;;;5012315;28;20029;-78
2021/04/24 05:59:27;;;;;;;0.20;0.00;;;13.70;40.20;;;;;;5012351;28;20045;-78
2021/04/24 06:01:53;;;;;;;1.33;0.45;;;13.90;40.10;;;;;;5041915;28;20065;-78
2021/04/24 06:04:19;;;;;;;1.90;0.20;;;14.00;39.90;;;;;;5013591;28;20026;-79
2021/04/24 06:06:45;;;;;;;0.93;0.10;;;14.20;39.70;;;;;;5012398;28;20081;-79
2021/04/24 06:09:11;;;;;;;1.13;0.17;;;14.40;39.60;;;;;;5013831;28;20028;-79
2021/04/24 06:11:37;;;;;;;1.00;0.15;;;14.50;39.40;;;;;;5010847;28;20037;-78
2021/04/24 06:14:03;;;;;;;2.42;0.40;;;14.60;39.30;;;;;;5042441;28;20041;-78
2021/04/24 06:16:30;;;;;;;0.17;0.00;;;14.60;39.40;;;;;;4993065;28;20034;-78
2021/04/24 06:18:56;;;;;;;1.13;0.10;;;14.60;39.50;;;;;;5018790;28;20037;-78
2021/04/24 06:21:22;;;;;;;0.00;0.00;;;14.60;39.60;;;;;;4997073;28;20526;-79
2021/04/24 06:23:48;;;;;;;0.75;0.17;;;14.50;39.70;;;;;;5010503;28;20026;-78
2021/04/24 06:26:15;;;;;;;2.78;0.57;;;14.50;39.80;;;;;;5013337;28;20407;-79
2021/04/24 06:28:41;;;;;;;0.75;0.20;;;14.50;39.80;;;;;;5011593;28;20034;-79
2021/04/24 06:31:07;;;;;;;0.45;0.20;;;14.60;39.70;;;;;;5011425;28;20041;-79
2021/04/24 06:33:33;;;;;;;5.35;0.20;;;14.70;39.70;;;;;;5011035;28;20050;-79
2021/04/24 06:35:59;;;;;;;0.00;0.00;;;14.80;39.60;;;;;;5011761;28;20026;-78
2021/04/24 06:38:25;;;;;;;0.30;0.10;;;14.90;39.50;;;;;;5012354;28;20046;-78
2021/04/24 06:40:51;;;;;;;0.68;0.38;;;15.00;39.50;;;;;;5041657;28;20022;-78
2021/04/24 06:43:17;;;;;;;0.20;0.00;;;15.00;39.30;;;;;;5012646;28;20069;-78
2021/04/24 06:45:43;;;;;;;0.03;0.00;;;15.10;39.30;;;;;;5010796;28;20046;-79
2021/04/24 06:48:10;;;;;;;2.63;0.55;;;15.20;39.30;;;;;;5011854;28;20038;-78
2021/04/24 06:50:36;;;;;;;0.55;0.28;;;15.20;39.20;;;;;;5011945;28;20088;-78
2021/04/24 06:53:03;;;;;;;0.38;0.20;;;15.30;39.10;;;;;;5025162;28;20052;-78
2021/04/24 06:55:29;;;;;;;0.77;0.28;;;15.30;39.10;;;;;;5011778;28;20026;-78
2021/04/24 06:57:55;;;;;;;0.00;0.00;;;15.30;39.10;;;;;;5010855;28;20046;-79
2021/04/24 07:00:22;;;;;;;0.00;0.00;;;15.30;39.20;;;;;;5010758;28;20049;-78
2021/04/24 07:02:48;;;;;;;0.20;0.10;;;15.30;39.20;;;;;;5009758;28;20035;-78
2021/04/24 07:05:15;;;;;;;0.77;0.20;;;15.20;39.20;;;;;;5013865;28;20026;-79
2021/04/24 07:07:41;;;;;;;0.63;0.10;;;15.30;39.30;;;;;;5023094;28;20037;-78
2021/04/24 07:10:08;;;;;;;0.00;0.00;;;15.50;39.20;;;;;;5009666;28;20025;-79
2021/04/24 07:12:34;;;;;;;0.28;0.08;;;15.60;38.90;;;;;;5009181;28;20030;-79
2021/04/24 07:15:01;;;;;;;0.55;0.10;;;15.70;38.80;;;;;;4996226;28;20535;-78
2021/04/24 07:17:27;;;;;;;1.48;0.30;;;15.80;38.80;;;;;;5010905;28;20371;-78
2021/04/24 07:19:53;;;;;;;0.90;0.30;;;15.90;38.70;;;;;;5013764;28;20042;-79
2021/04/24 07:22:19;;;;;;;0.40;0.22;;;16.00;38.60;;;;;;5007130;28;20029;-79
2021/04/24 07:24:46;;;;;;;0.75;0.20;;;16.00;38.60;;;;;;5010585;28;20034;-79
2021/04/24 07:27:13;;;;;;;0.47;0.47;;;15.90;38.70;;;;;;5012102;28;20048;-79
2021/04/24 07:29:40;;;;;;;0.25;0.20;;;15.80;38.90;;;;;;5012082;28;20049;-78
2021/04/24 07:32:06;;;;;;;0.50;0.10;;;15.60;39.10;;;;;;5040512;28;20041;-79
2021/04/24 07:34:32;;;;;;;0.17;0.03;;;15.50;39.40;;;;;;5011802;28;20068;-79
2021/04/24 07:36:59;;;;;;;1.35;0.08;;;15.50;39.40;;;;;;5010712;28;20498;-79
2021/04/24 07:39:25;;;;;;;0.00;0.00;;;15.50;39.40;;;;;;5010177;28;20042;-79
2021/04/24 07:41:51;;;;;;;0.85;0.30;;;15.70;39.40;;;;;;5011999;28;20025;-79
2021/04/24 07:44:18;;;;;;;0.75;0.17;;;15.80;39.20;;;;;;5011688;28;20034;-79
2021/04/24 07:46:44;;;;;;;1.35;0.25;;;16.00;39.00;;;;;;5039239;28;20037;-79
2021/04/24 07:49:10;;;;;;;0.10;0.00;;;16.30;38.80;;;;;;5009353;28;20025;-79
2021/04/24 07:51:36;;;;;;;0.10;0.10;;;16.50;38.60;;;;;;5011465;28;20026;-79
2021/04/24 07:54:02;;;;;;;1.20;0.20;;;16.70;38.30;;;;;;5010088;28;20042;-79
2021/04/24 07:56:28;;;;;;;2.17;0.40;;;16.90;38.10;;;;;;5010304;28;20037;-80
2021/04/24 07:58:54;;;;;;;1.75;0.50;;;16.90;38.00;;;;;;5040529;28;20049;-80
2021/04/24 08:01:20;;;;;;;0.00;0.00;;;17.00;37.90;;;;;;5010948;28;20053;-80
2021/04/24 08:03:47;;;;;;;0.98;0.20;;;17.10;37.80;;;;;;5011164;28;20030;-80
2021/04/24 08:06:13;;;;;;;0.05;0.00;;;17.30;37.60;;;;;;5010063;28;20026;-80
2021/04/24 08:08:39;;;;;;;0.00;0.00;;;17.50;37.50;;;;;;5009104;28;20712;-80
2021/04/24 08:11:05;;;;;;;4.60;0.20;;;17.60;37.30;;;;;;5012867;28;20030;-80
2021/04/24 08:13:31;;;;;;;0.32;0.10;;;17.70;37.20;;;;;;5011199;28;20046;-80
2021/04/24 08:15:57;;;;;;;0.20;0.00;;;17.70;37.10;;;;;;5010606;28;20037;-80
2021/04/24 08:18:23;;;;;;;0.40;0.10;;;17.80;37.20;;;;;;5011189;28;20041;-80
2021/04/24 08:20:49;;;;;;;2.35;0.52;;;17.80;37.10;;;;;;5009750;28;20060;-80
2021/04/24 08:23:15;;;;;;;0.63;0.35;;;17.90;37.00;;;;;;5012276;28;20037;-80
2021/04/24 08:25:41;;;;;;;0.30;0.10;;;18.10;36.90;;;;;;5038866;28;20033;-80
2021/04/24 08:28:07;;;;;;;0.13;0.10;;;18.20;36.70;;;;;;5010197;28;20038;-80
2021/04/24 08:30:34;;;;;;;0.43;0.25;;;18.30;36.50;;;;;;5009470;28;20033;-81
2021/04/24 08:33:00;;;;;;;15.20;0.63;;;18.40;36.40;;;;;;5009855;28;20056;-81
2021/04/24 08:35:26;;;;;;;0.10;0.00;;;18.50;36.30;;;;;;5011342;28;20026;-79
2021/04/24 08:37:52;;;;;;;0.43;0.30;;;18.60;36.30;;;;;;5039675;28;20383;-80
2021/04/24 08:40:18;;;;;;;4.85;0.28;;;18.70;36.10;;;;;;5009145;28;20041;-80
2021/04/24 08:42:46;;;;;;;0.00;0.00;;;18.80;36.00;;;;;;5010660;28;20037;-80
2021/04/24 08:45:17;;;;;;;0.35;0.10;;;18.90;35.80;;;;;;5009232;28;20042;-80
2021/04/24 08:47:48;;;;;;;0.28;0.10;;;19.00;35.80;;;;;;4995473;28;20018;-81
2021/04/24 08:50:16;;;;;;;0.57;0.13;;;19.10;35.70;;;;;;5010632;28;20030;-80
2021/04/24 08:52:42;;;;;;;1.25;0.05;;;19.20;35.70;;;;;;5010779;28;20065;-80
2021/04/24 08:55:10;;;;;;;0.00;0.00;;;19.40;35.50;;;;;;5007694;28;20049;-80
2021/04/24 08:57:37;;;;;;;0.60;0.30;;;19.40;35.30;;;;;;5010448;28;20030;-80
2021/04/24 09:00:07;;;;;;;0.52;0.30;;;19.50;35.30;;;;;;5007302;28;20475;-80
2021/04/24 09:02:33;;;;;;;0.47;0.30;;;19.70;35.20;;;;;;5009496;28;20487;-80
2021/04/24 09:04:59;;;;;;;1.10;0.20;;;19.80;35.00;;;;;;5010610;28;20057;-80
2021/04/24 09:07:26;;;;;;;1.85;0.20;;;19.90;34.90;;;;;;5007940;28;20034;-80
2021/04/24 09:09:59;;;;;;;1.45;0.00;;;20.10;34.90;;;;;;5009114;28;20030;-80
2021/04/24 09:12:38;;;;;;;0.45;0.05;;;20.30;34.60;;;;;;5008633;28;20033;-80
2021/04/24 09:15:12;;;;;;;0.52;0.22;;;20.40;34.50;;;;;;5007793;28;20030;-80
2021/04/24 09:17:50;;;;;;;1.77;0.52;;;20.40;34.40;;;;;;5014211;28;20378;-81
2021/04/24 09:20:17;;;;;;;0.25;0.10;;;20.40;34.40;;;;;;5012443;28;20029;-80
2021/04/24 09:22:48;;;;;;;0.90;0.40;;;20.40;34.40;;;;;;5013554;28;20034;-80
2021/04/24 09:25:14;;;;;;;0.17;0.00;;;20.60;34.50;;;;;;4993896;28;20042;-81
2021/04/24 09:27:42;;;;;;;0.70;0.28;;;20.70;34.30;;;;;;5033818;28;20376;-80
2021/04/24 09:30:18;;;;;;;0.90;0.55;;;20.70;34.10;;;;;;5011050;28;20029;-81
2021/04/24 09:32:47;;;;;;;3.70;0.20;;;20.80;34.00;;;;;;4982717;28;20033;-79
2021/04/24 09:35:19;;;;;;;0.17;0.10;;;21.00;33.90;;;;;;4998089;28;20046;-80
2021/04/24 09:37:55;;;;;;;6.55;1.98;;;21.20;33.70;;;;;;5015741;28;20053;-80
2021/04/24 09:40:21;;;;;;;1.42;0.47;;;21.20;33.50;;;;;;5010941;28;20030;-81
2021/04/24 09:42:47;;;;;;;0.38;0.20;;;21.30;33.50;;;;;;5012570;28;20033;-81
2021/04/24 09:45:33;;;;;;;0.77;0.25;;;21.40;33.40;;;;;;5012206;28;20050;-81
2021/04/24 09:47:59;;;;;;;0.38;0.10;;;21.50;34.00;;;;;;5017407;28;20026;-80
2021/04/24 09:50:35;;;;;;;0.93;0.25;;;21.60;33.20;;;;;;5012565;28;20053;-81
2021/04/24 09:53:22;;;;;;;0.22;0.20;;;21.70;33.20;;;;;;5031852;28;20365;-81
2021/04/24 09:55:49;;;;;;;0.20;0.10;;;21.80;32.90;;;;;;5013730;28;20026;-81
2021/04/24 09:58:26;;;;;;;0.30;0.15;;;21.80;32.80;;;;;;5012545;28;20033;-81
2021/04/24 10:00:53;;;;;;;0.30;0.10;;;21.90;32.70;;;;;;5011877;28;20491;-80
2021/04/24 10:03:38;;;;;;;0.40;0.20;;;21.90;32.70;;;;;;5011280;28;20060;-81
2021/04/24 10:06:24;;;;;;;0.32;0.10;;;21.90;32.70;;;;;;4993697;28;20430;-80
2021/04/24 10:08:51;;;;;;;0.00;0.00;;;22.00;32.70;;;;;;4999080;28;20026;-81
2021/04/24 10:11:27;;;;;;;0.20;0.00;;;22.00;32.40;;;;;;5014131;28;20037;-81
2021/04/24 10:13:54;;;;;;;0.60;0.10;;;22.10;32.50;;;;;;5027770;28;20049;-81
2021/04/24 10:16:44;;;;;;;0.45;0.35;;;22.10;32.30;;;;;;5012152;28;20037;-81
2021/04/24 10:19:15;;;;;;;0.45;0.00;;;22.20;32.30;;;;;;5009730;28;20037;-81
2021/04/24 10:21:42;;;;;;;0.25;0.00;;;22.30;32.00;;;;;;4993076;28;20031;-81
2021/04/24 10:24:09;;;;;;;3.08;0.22;;;22.50;31.90;;;;;;5031022;28;20034;-81
2021/04/24 10:26:35;;;;;;;0.45;0.10;;;22.50;31.90;;;;;;4995663;28;20395;-81
2021/04/24 10:29:01;;;;;;;0.20;0.08;;;22.60;31.90;;;;;;5014281;28;20026;-81
2021/04/24 10:31:28;;;;;;;0.00;0.00;;;22.60;31.70;;;;;;5011627;28;20061;-80
2021/04/24 10:33:56;;;;;;;0.65;0.20;;;22.60;31.70;;;;;;5010916;28;20041;-81
2021/04/24 10:36:22;;;;;;;1.00;0.28;;;22.60;31.80;;;;;;5010981;28;20399;-80
2021/04/24 10:38:49;;;;;;;0.90;0.20;;;22.70;31.70;;;;;;5012507;28;20034;-81
2021/04/24 10:41:16;;;;;;;2.03;0.60;;;22.80;31.60;;;;;;4977442;28;20045;-81
2021/04/24 10:43:43;;;;;;;0.63;0.10;;;23.00;31.50;;;;;;5014355;28;20038;-80
2021/04/24 10:46:29;;;;;;;0.30;0.00;;;23.10;31.40;;;;;;5005226;28;20038;-81
2021/04/24 10:49:19;;;;;;;0.03;0.00;;;23.30;31.40;;;;;;4992374;28;20039;-81
2021/04/24 10:51:52;;;;;;;0.50;0.10;;;23.50;31.20;;;;;;5005246;28;20025;-81
2021/04/24 10:54:18;;;;;;;0.63;0.13;;;23.50;31.00;;;;;;5010656;28;20034;-81
2021/04/24 10:56:44;;;;;;;0.35;0.20;;;23.50;31.00;;;;;;5009705;28;20029;-80
2021/04/24 10:59:21;;;;;;;1.27;0.47;;;23.70;31.10;;;;;;4979861;28;20049;-81
2021/04/24 11:02:07;;;;;;;0.30;0.10;;;23.80;30.90;;;;;;5039292;28;20045;-81
2021/04/24 11:04:39;;;;;;;1.17;0.20;;;23.80;30.70;;;;;;5009372;28;20074;-81
2021/04/24 11:07:18;;;;;;;0.57;0.13;;;23.90;30.60;;;;;;5011837;28;20026;-81
2021/04/24 11:09:45;;;;;;;1.13;0.38;;;24.00;30.50;;;;;;5010123;28;20030;-81
2021/04/24 11:12:12;;;;;;;0.65;0.13;;;24.00;30.50;;;;;;4992907;28;20030;-81
2021/04/24 11:14:40;;;;;;;0.68;0.35;;;24.10;30.40;;;;;;5011814;28;20045;-81
2021/04/24 11:17:08;;;;;;;1.13;0.10;;;24.30;30.20;;;;;;5011240;28;20038;-81
2021/04/24 11:19:40;;;;;;;0.52;0.20;;;24.40;30.20;;;;;;4991888;28;20049;-81
2021/04/24 11:22:35;;;;;;;0.20;0.00;;;24.50;30.10;;;;;;5011723;28;20034;-81
2021/04/24 11:25:29;;;;;;;0.90;0.20;;;24.60;30.00;;;;;;5012125;28;20033;-81
2021/04/24 11:28:05;;;;;;;0.28;0.17;;;24.60;29.90;;;;;;5010431;28;20034;-81
2021/04/24 11:30:53;;;;;;;0.20;0.00;;;24.60;29.80;;;;;;5009308;28;20034;-81
2021/04/24 11:33:39;;;;;;;1.02;0.20;;;24.60;29.60;;;;;;5011464;28;20073;-81
2021/04/24 11:36:18;;;;;;;0.17;0.00;;;24.60;29.60;;;;;;5008638;28;20030;-81
2021/04/24 11:38:54;;;;;;;0.73;0.20;;;24.70;29.40;;;;;;4996275;28;20018;-81
2021/04/24 11:41:38;;;;;;;4.43;0.20;;;24.70;29.40;;;;;;5012225;28;20030;-81
2021/04/24 11:44:21;;;;;;;2.08;0.52;;;24.60;29.40;;;;;;5012485;28;20044;-81
2021/04/24 11:46:48;;;;;;;2.53;0.20;;;24.70;29.40;;;;;;5038673;28;20034;-81
2021/04/24 11:49:15;;;;;;;0.47;0.13;;;24.70;29.30;;;;;;5011029;28;20026;-81
2021/04/24 11:51:46;;;;;;;0.80;0.20;;;24.80;29.40;;;;;;5010962;28;20032;-81
2021/04/24 11:54:34;;;;;;;;;;;24.90;29.40;;;;;;5010149;28;20475;-81
2021/04/24 11:57:02;;;;;;;0.10;0.00;;;25.10;29.30;;;;;;4995675;28;19910;-81
2021/04/24 11:59:29;;;;;;;0.40;0.10;;;25.30;29.60;;;;;;4992853;28;20045;-81
2021/04/24 12:02:01;;;;;;;1.65;0.60;;;25.30;28.90;;;;;;5026763;28;20499;-80
2021/04/24 12:04:34;;;;;;;0.43;0.20;;;25.30;29.00;;;;;;5006847;28;20046;-80
2021/04/24 12:07:10;;;;;;;0.60;0.28;;;25.30;28.90;;;;;;5009584;28;20048;-81
2021/04/24 12:09:52;;;;;;;2.15;0.20;;;25.40;29.00;;;;;;5009790;28;20045;-80
2021/04/24 12:12:31;;;;;;;0.10;0.00;;;25.50;28.80;;;;;;5002885;28;20053;-81
2021/04/24 12:15:04;;;;;;;0.15;0.03;;;25.40;28.70;;;;;;5007587;28;20034;-79
2021/04/24 12:17:32;;;;;;;0.75;0.20;;;25.40;28.70;;;;;;4992727;28;20026;-80
2021/04/24 12:19:58;;;;;;;0.40;0.10;;;25.30;28.70;;;;;;5023071;28;20522;-79
2021/04/24 12:22:24;;;;;;;0.40;0.00;;;25.30;28.70;;;;;;5008094;28;20057;-79
2021/04/24 12:25:19;;;;;;;0.10;0.00;;;25.30;28.70;;;;;;5010407;28;20041;-80
2021/04/24 12:27:47;;;;;;;0.20;0.05;;;25.30;28.70;;;;;;5005062;28;20034;-79
2021/04/24 12:30:17;;;;;;;0.22;0.10;;;25.40;28.70;;;;;;5008649;28;20026;-79
2021/04/24 12:32:47;;;;;;;0.70;0.08;;;25.50;28.60;;;;;;5024804;28;20120;-80
2021/04/24 12:35:15;;;;;;;0.22;0.00;;;25.60;28.50;;;;;;5008441;28;20105;-80
2021/04/24 12:37:41;;;;;;;0.20;0.03;;;25.70;28.50;;;;;;5029020;28;20034;-80
2021/04/24 12:40:10;;;;;;;15.43;0.40;;;25.70;28.50;;;;;;5003672;28;20072;-80
2021/04/24 12:42:36;;;;;;;0.88;0.22;;;25.80;28.30;;;;;;5037115;28;20045;-79
2021/04/24 12:45:23;;;;;;;0.10;0.00;;;25.70;28.20;;;;;;5006759;28;20049;-79
2021/04/24 12:47:52;;;;;;;0.43;0.00;;;25.80;28.20;;;;;;5011273;28;20033;-80
2021/04/24 12:50:28;;;;;;;0.00;0.00;;;25.80;28.10;;;;;;5010230;28;20033;-80
2021/04/24 12:52:59;;;;;;;0.17;0.00;;;25.80;28.10;;;;;;5021630;28;20021;-80
2021/04/24 12:55:44;;;;;;;0.47;0.10;;;25.80;27.90;;;;;;5008543;28;20060;-80